createdAt,value
2023-03-20T00:03:58.793Z,9
2023-03-20T00:09:04.908Z,8.8
2023-03-20T00:14:11.016Z,8.8
2023-03-20T00:19:17.137Z,8.6
2023-03-20T00:24:23.299Z,8.5
2023-03-20T00:29:29.365Z,8.6
2023-03-20T00:34:35.457Z,8.3
2023-03-20T00:39:41.583Z,8.4
2023-03-20T00:44:47.768Z,8.3
2023-03-20T00:49:52.838Z,7.8
2023-03-20T00:54:58.947Z,7.5
2023-03-20T01:00:05.054Z,7.4
2023-03-20T01:05:11.194Z,7.4
2023-03-20T01:10:17.300Z,7.5
2023-03-20T01:15:23.390Z,7.8
2023-03-20T01:20:29.525Z,7.8
2023-03-20T01:25:35.617Z,8.2
2023-03-20T01:30:41.749Z,8.3
2023-03-20T01:35:47.857Z,8.4
2023-03-20T01:40:53.967Z,8.5
2023-03-20T01:46:00.062Z,8.5
2023-03-20T01:51:06.217Z,8.4
2023-03-20T01:56:11.307Z,8.3
2023-03-20T02:01:17.436Z,8.3
2023-03-20T02:06:23.543Z,8.1
2023-03-20T02:11:29.659Z,8
2023-03-20T02:16:35.792Z,8
2023-03-20T02:21:41.881Z,8
2023-03-20T02:26:47.979Z,8
2023-03-20T02:31:54.093Z,7.7
2023-03-20T02:37:00.241Z,7.6
2023-03-20T02:42:06.317Z,7.5
2023-03-20T02:47:12.416Z,7.5
2023-03-20T02:52:18.538Z,7.5
2023-03-20T02:57:24.653Z,7.6
2023-03-20T03:02:29.778Z,7.5
2023-03-20T03:07:35.901Z,7.8
2023-03-20T03:12:42.000Z,7.9
2023-03-20T03:17:48.120Z,7.9
2023-03-20T03:22:54.224Z,7.8
2023-03-20T03:28:00.346Z,7.7
2023-03-20T03:33:06.454Z,7.7
2023-03-20T03:38:12.553Z,7.8
2023-03-20T03:43:18.668Z,8
2023-03-20T03:48:24.784Z,8
2023-03-20T03:53:30.898Z,8.1
2023-03-20T03:58:37.039Z,8.2
2023-03-20T04:03:43.125Z,8.4
2023-03-20T04:08:48.266Z,8.6
2023-03-20T04:13:54.434Z,8.8
2023-03-20T04:19:00.477Z,9
2023-03-20T04:24:06.589Z,9.1
2023-03-20T04:29:12.695Z,9.2
2023-03-20T04:34:18.809Z,9.2
2023-03-20T04:39:24.939Z,9.3
2023-03-20T04:44:31.049Z,9.2
2023-03-20T04:49:37.160Z,9.2
2023-03-20T04:54:43.270Z,9.2
2023-03-20T04:59:49.365Z,9.1
2023-03-20T05:04:55.486Z,9
2023-03-20T05:10:01.585Z,8.8
2023-03-20T05:15:06.824Z,8.7
2023-03-20T05:20:12.823Z,8.7
2023-03-20T05:25:18.927Z,8.7
2023-03-20T05:30:25.106Z,8.7
2023-03-20T05:35:31.156Z,8.7
2023-03-20T05:40:37.282Z,8.7
2023-03-20T05:45:43.389Z,8.7
2023-03-20T05:50:49.489Z,8.7
2023-03-20T05:55:55.605Z,8.7
2023-03-20T06:01:02.207Z,8.7
2023-03-20T06:06:07.836Z,8.5
2023-03-20T06:11:13.943Z,8.2
2023-03-20T06:16:20.050Z,8.1
2023-03-20T06:21:25.189Z,8
2023-03-20T06:26:31.298Z,7.9
2023-03-20T06:31:37.394Z,7.8
2023-03-20T06:36:43.514Z,7.8
2023-03-20T06:41:49.631Z,7.9
2023-03-20T06:46:55.769Z,7.9
2023-03-20T06:52:01.905Z,8
2023-03-20T06:57:07.990Z,8.1
2023-03-20T07:02:14.113Z,8.2
2023-03-20T07:07:20.222Z,8.2
2023-03-20T07:12:26.343Z,8.1
2023-03-20T07:17:32.433Z,8
2023-03-20T07:22:38.569Z,8.1
2023-03-20T07:27:43.684Z,8.2
2023-03-20T07:32:49.801Z,8.2
2023-03-20T07:37:55.915Z,8.3
2023-03-20T07:43:02.024Z,8.3
2023-03-20T07:48:08.148Z,8.3
2023-03-20T07:53:14.252Z,8.4
2023-03-20T07:58:20.373Z,8.5
2023-03-20T08:03:26.525Z,10.1
2023-03-20T08:08:32.594Z,12.1
2023-03-20T08:13:38.716Z,13
2023-03-20T08:18:44.821Z,12.2
2023-03-20T08:23:50.917Z,11.3
2023-03-20T08:28:57.057Z,10.6
2023-03-20T08:34:02.172Z,10.4
2023-03-20T08:39:08.266Z,10.4
2023-03-20T08:44:14.384Z,10.2
2023-03-20T08:49:20.501Z,10.4
2023-03-20T08:54:26.664Z,10.4
2023-03-20T08:59:32.761Z,10.8
2023-03-20T09:04:38.901Z,10.6
2023-03-20T09:09:45.008Z,10.5
2023-03-20T09:14:51.235Z,10.4
2023-03-20T09:19:57.310Z,10.7
2023-03-20T09:25:03.386Z,11
2023-03-20T09:30:09.387Z,11
2023-03-20T09:35:15.517Z,11.2
2023-03-20T09:40:20.610Z,11.2
2023-03-20T09:45:26.740Z,11
2023-03-20T09:50:32.825Z,10.7
2023-03-20T09:55:38.984Z,10.8
2023-03-20T10:00:45.084Z,11.5
2023-03-20T10:05:51.208Z,11.6
2023-03-20T10:10:57.311Z,11.9
2023-03-20T10:16:03.419Z,11.8
2023-03-20T10:21:09.531Z,11.3
2023-03-20T10:26:15.631Z,11.8
2023-03-20T10:31:21.746Z,11.4
2023-03-20T10:36:27.856Z,11
2023-03-20T10:41:34.119Z,11.4
2023-03-20T10:46:39.085Z,11.8
2023-03-20T10:51:45.195Z,11.7
2023-03-20T10:56:51.303Z,11.7
2023-03-20T11:01:57.411Z,12
2023-03-20T11:07:03.503Z,12.1
2023-03-20T11:12:09.646Z,12.3
2023-03-20T11:17:15.777Z,12.2
2023-03-20T11:22:21.835Z,12.5
2023-03-20T11:27:27.941Z,12.4
2023-03-20T11:32:34.057Z,12.1
2023-03-20T11:37:40.154Z,12.1
2023-03-20T11:42:46.253Z,12
2023-03-20T11:47:52.441Z,12
2023-03-20T11:52:57.491Z,11.5
2023-03-20T11:58:03.594Z,11.4
2023-03-20T12:03:09.701Z,11.3
2023-03-20T12:08:15.794Z,11.3
2023-03-20T12:13:21.911Z,11.4
2023-03-20T12:18:28.023Z,11.5
2023-03-20T12:23:34.140Z,11.6
2023-03-20T12:28:40.242Z,11.5
2023-03-20T12:33:46.340Z,11.5
2023-03-20T12:38:52.476Z,11.3
2023-03-20T12:43:58.570Z,11.2
2023-03-20T12:49:04.714Z,11.1
2023-03-20T12:54:10.780Z,11.4
2023-03-20T12:59:15.925Z,12.5
2023-03-20T13:04:22.048Z,12.7
2023-03-20T13:09:28.138Z,12.6
2023-03-20T13:14:34.238Z,11.8
2023-03-20T13:19:40.370Z,11.3
2023-03-20T13:24:46.471Z,11.3
2023-03-20T13:29:52.703Z,10.9
2023-03-20T13:34:58.726Z,10.9
2023-03-20T13:40:04.774Z,10.7
2023-03-20T13:45:10.895Z,10.4
2023-03-20T13:50:17.036Z,9.9
2023-03-20T13:55:23.155Z,9.6
2023-03-20T14:00:29.291Z,9.6
2023-03-20T14:05:34.403Z,9.7
2023-03-20T14:10:40.526Z,9.9
2023-03-20T14:15:46.639Z,10.1
2023-03-20T14:20:52.788Z,10.2
2023-03-20T14:25:58.831Z,10.5
2023-03-20T14:31:04.943Z,11.2
2023-03-20T14:36:11.053Z,11.3
2023-03-20T14:41:17.174Z,11
2023-03-20T14:46:23.289Z,10.9
2023-03-20T14:51:29.475Z,10.8
2023-03-20T14:56:35.530Z,11
2023-03-20T15:01:41.637Z,11.2
2023-03-20T15:06:47.762Z,11.2
2023-03-20T15:11:52.954Z,11.2
2023-03-20T15:16:59.025Z,10.8
2023-03-20T15:22:05.138Z,10.8
2023-03-20T15:27:11.209Z,10.8
2023-03-20T15:32:17.344Z,10.9
2023-03-20T15:37:23.524Z,10.8
2023-03-20T15:42:28.698Z,10.8
2023-03-20T15:47:34.762Z,10.6
2023-03-20T15:52:40.828Z,10.4
2023-03-20T15:57:46.924Z,10.4
2023-03-20T16:02:53.117Z,10.5
2023-03-20T16:07:59.229Z,10.5
2023-03-20T16:13:05.358Z,10.6
2023-03-20T16:18:11.375Z,10.5
2023-03-20T16:23:17.559Z,10.3
2023-03-20T16:28:23.680Z,10.2
2023-03-20T16:33:29.729Z,10
2023-03-20T16:38:35.872Z,10
2023-03-20T16:43:41.959Z,10
2023-03-20T16:48:47.130Z,9.8
2023-03-20T16:53:53.224Z,9.5
2023-03-20T16:58:59.382Z,9.2
2023-03-20T17:04:05.416Z,8.7
2023-03-20T17:09:11.553Z,8.5
2023-03-20T17:14:17.663Z,8.2
2023-03-20T17:19:23.748Z,7.9
2023-03-20T17:24:29.843Z,7.5
2023-03-20T17:29:36.040Z,7.3
2023-03-20T17:34:42.071Z,7.1
2023-03-20T17:39:48.180Z,6.8
2023-03-20T17:44:54.305Z,6.6
2023-03-20T17:50:00.408Z,6.5
2023-03-20T17:55:05.535Z,6.6
2023-03-20T18:00:11.765Z,6.9
2023-03-20T18:05:17.764Z,6.7
2023-03-20T18:10:23.863Z,6.6
2023-03-20T18:15:30.067Z,6.4
2023-03-20T18:20:36.100Z,6.4
2023-03-20T18:25:42.411Z,6.3
2023-03-20T18:30:48.339Z,6.1
2023-03-20T18:35:54.559Z,6
2023-03-20T18:41:00.572Z,6
2023-03-20T18:46:06.703Z,6.2
2023-03-20T18:51:12.811Z,6.3
2023-03-20T18:56:18.938Z,6.3
2023-03-20T19:01:24.075Z,6.2
2023-03-20T19:06:30.180Z,6.2
2023-03-20T19:11:36.308Z,6.2
2023-03-20T19:16:42.435Z,6.4
2023-03-20T19:21:48.526Z,6.4
2023-03-20T19:26:54.806Z,6.7
2023-03-20T19:32:00.776Z,6.7
2023-03-20T19:37:06.878Z,6.7
2023-03-20T19:42:12.980Z,6.7
2023-03-20T19:47:19.108Z,6.6
2023-03-20T19:52:25.269Z,6.6
2023-03-20T19:57:31.329Z,6.5
2023-03-20T20:02:37.596Z,6.5
2023-03-20T20:07:42.587Z,6.5
2023-03-20T20:12:48.695Z,6.5
2023-03-20T20:17:54.890Z,6.5
2023-03-20T20:23:00.914Z,6.5
2023-03-20T20:28:07.037Z,6.4
2023-03-20T20:33:13.206Z,6.4
2023-03-20T20:38:19.251Z,6.3
2023-03-20T20:43:25.409Z,6.4
2023-03-20T20:48:31.489Z,6.4
2023-03-20T20:53:37.611Z,6.4
2023-03-20T20:58:43.828Z,6.5
2023-03-20T21:03:49.844Z,6.5
2023-03-20T21:08:55.944Z,6.5
2023-03-20T21:19:07.194Z,6.8
2023-03-20T21:24:13.302Z,6.9
2023-03-20T21:29:19.414Z,6.9
2023-03-20T21:34:25.531Z,6.9
2023-03-20T21:39:31.645Z,6.8
2023-03-20T21:44:37.768Z,6.9
2023-03-20T21:49:43.873Z,7
2023-03-20T21:54:50.010Z,7.1
2023-03-20T21:59:56.094Z,7.2
2023-03-20T22:05:02.211Z,7.3
2023-03-20T22:10:08.306Z,7.6
2023-03-20T22:15:14.434Z,7.5
2023-03-20T22:20:19.563Z,7.5
2023-03-20T22:25:25.654Z,7.5
2023-03-20T22:30:31.776Z,7.5
2023-03-20T22:35:37.891Z,7.5
2023-03-20T22:40:43.993Z,7.5
2023-03-20T22:45:50.109Z,7.5
2023-03-20T22:50:56.232Z,7.4
2023-03-20T22:56:02.345Z,7.4
2023-03-20T23:01:08.436Z,7.4
2023-03-20T23:06:14.545Z,7.5
2023-03-20T23:11:20.667Z,7.5
2023-03-20T23:16:26.772Z,7.5
2023-03-20T23:21:32.881Z,7.5
2023-03-20T23:26:38.016Z,7.5
2023-03-20T23:31:44.118Z,7.4
2023-03-20T23:36:50.227Z,7.4
2023-03-20T23:41:56.341Z,7.3
2023-03-20T23:47:02.547Z,7.2
2023-03-20T23:52:08.756Z,7.1
2023-03-20T23:57:14.846Z,7
